createdAt,value
2024-02-09T00:00:42.770Z,2.45
2024-02-09T00:03:28.486Z,2.97
2024-02-09T00:06:22.955Z,2.95
2024-02-09T00:08:55.087Z,3.33
2024-02-09T00:11:41.888Z,2.50
2024-02-09T00:14:16.609Z,3.35
2024-02-09T00:19:53.199Z,2.78
2024-02-09T00:22:45.371Z,2.67
2024-02-09T00:25:35.092Z,3.63
2024-02-09T00:28:09.405Z,3.75
2024-02-09T00:30:45.257Z,3.10
2024-02-09T00:33:44.593Z,2.72
2024-02-09T00:36:16.190Z,3.47
2024-02-09T00:38:55.485Z,3.42
2024-02-09T00:41:47.662Z,2.67
2024-02-09T00:44:30.306Z,3.15
2024-02-09T00:47:03.865Z,2.72
2024-02-09T00:49:48.587Z,2.50
2024-02-09T00:52:19.886Z,2.10
2024-02-09T00:55:04.367Z,2.97
2024-02-09T00:57:35.164Z,2.45
2024-02-09T01:00:48.142Z,2.33
2024-02-09T01:03:38.505Z,3.57
2024-02-09T01:06:41.988Z,3.33
2024-02-09T01:09:17.990Z,4.47
2024-02-09T01:11:56.959Z,2.63
2024-02-09T01:14:44.958Z,2.90
2024-02-09T01:17:59.811Z,2.63
2024-02-09T01:20:57.943Z,3.75
2024-02-09T01:23:51.166Z,2.83
2024-02-09T01:26:47.717Z,3.78
2024-02-09T01:29:39.527Z,2.60
2024-02-09T01:32:37.111Z,2.30
2024-02-09T01:35:30.146Z,2.30
2024-02-09T01:38:23.714Z,4.13
2024-02-09T01:41:24.842Z,2.20
2024-02-09T01:44:43.964Z,2.55
2024-02-09T01:47:38.057Z,4.30
2024-02-09T01:50:29.446Z,2.22
2024-02-09T01:53:26.124Z,2.95
2024-02-09T01:56:18.369Z,2.22
2024-02-09T01:59:19.372Z,2.97
2024-02-09T02:02:27.254Z,2.53
2024-02-09T02:05:17.379Z,2.67
2024-02-09T02:08:14.514Z,2.35
2024-02-09T02:11:12.586Z,3.60
2024-02-09T02:14:04.377Z,2.78
2024-02-09T02:17:03.691Z,3.03
2024-02-09T02:20:16.544Z,2.40
2024-02-09T02:23:15.570Z,3.17
2024-02-09T02:26:12.718Z,2.50
2024-02-09T02:29:03.503Z,1.70
2024-02-09T02:38:50.465Z,2.35
2024-02-09T02:41:20.937Z,2.58
2024-02-09T02:43:54.739Z,2.05
2024-02-09T02:46:28.584Z,1.92
2024-02-09T02:49:43.301Z,2.40
2024-02-09T02:52:31.127Z,2.03
2024-02-09T02:55:23.439Z,2.63
2024-02-09T02:58:09.706Z,3.65
2024-02-09T03:01:00.369Z,2.13
2024-02-09T03:03:46.490Z,2.78
2024-02-09T03:06:21.852Z,1.63
2024-02-09T03:09:00.414Z,1.33
2024-02-09T03:11:29.553Z,2.85
2024-02-09T03:14:37.236Z,1.95
2024-02-09T03:17:19.958Z,2.08
2024-02-09T03:20:15.469Z,1.70
2024-02-09T03:22:50.902Z,2.05
2024-02-09T03:25:30.218Z,1.35
2024-02-09T03:28:06.682Z,1.52
2024-02-09T03:54:52.854Z,1.52
2024-02-09T03:57:46.619Z,1.20
2024-02-09T04:00:18.363Z,2.17
2024-02-09T04:03:04.184Z,1.30
2024-02-09T04:06:11.735Z,1.70
2024-02-09T04:12:30.301Z,1.70
2024-02-09T04:15:11.757Z,1.42
2024-02-09T04:17:45.929Z,2.50
2024-02-09T04:20:19.181Z,1.70
2024-02-09T04:23:06.247Z,2.10
2024-02-09T04:25:56.348Z,1.58
2024-02-09T04:28:39.275Z,1.33
2024-02-09T04:31:23.364Z,1.08
2024-02-09T04:33:59.971Z,1.30
2024-02-09T04:37:27.474Z,1.52
2024-02-09T04:40:11.227Z,1.73
2024-02-09T04:42:49.687Z,1.27
2024-02-09T04:45:29.161Z,1.45
2024-02-09T04:48:41.766Z,2.65
2024-02-09T04:51:23.154Z,2.85
2024-02-09T04:54:01.706Z,1.50
2024-02-09T04:56:45.659Z,2.63
2024-02-09T04:59:23.391Z,2.45
2024-02-09T05:02:05.067Z,1.80
2024-02-09T05:07:53.149Z,1.52
2024-02-09T05:10:53.154Z,1.25
2024-02-09T05:13:54.842Z,1.23
2024-02-09T05:16:43.495Z,1.80
2024-02-09T05:28:58.245Z,1.35
2024-02-09T05:32:04.331Z,1.35
2024-02-09T05:35:20.305Z,1.48
2024-02-09T05:37:51.984Z,2.65
2024-02-09T05:41:15.761Z,1.17
2024-02-09T05:52:09.148Z,1.45
2024-02-09T05:55:43.371Z,2.55
2024-02-09T05:59:13.747Z,1.55
2024-02-09T06:44:50.462Z,1.90
2024-02-09T10:31:51.536Z,1.35
2024-02-09T10:34:19.672Z,1.80
2024-02-09T10:36:49.772Z,1.30
2024-02-09T10:39:20.959Z,2.08
2024-02-09T10:41:54.039Z,1.30
2024-02-09T10:44:24.486Z,1.25
2024-02-09T10:46:56.802Z,2.75
2024-02-09T10:49:32.619Z,1.15
2024-02-09T10:52:07.126Z,1.20
2024-02-09T10:54:52.084Z,1.67
2024-02-09T10:57:22.788Z,1.60
2024-02-09T10:59:51.791Z,1.38
2024-02-09T11:02:19.892Z,1.02
2024-02-09T11:04:52.494Z,1.42
2024-02-09T11:07:21.551Z,1.40
2024-02-09T11:09:50.367Z,1.05
2024-02-09T11:12:23.287Z,1.00
2024-02-09T11:14:50.877Z,1.73
2024-02-09T11:17:22.932Z,2.00
2024-02-09T11:19:54.579Z,0.90
2024-02-09T11:22:24.116Z,3.72
2024-02-09T11:24:55.540Z,1.00
2024-02-09T11:27:32.215Z,1.33
2024-02-09T11:30:01.425Z,0.98
2024-02-09T11:32:29.490Z,1.10
2024-02-09T11:34:58.520Z,0.80
2024-02-09T11:37:25.907Z,1.23
2024-02-09T11:40:01.189Z,1.10
2024-02-09T11:42:35.435Z,1.10
2024-02-09T11:45:04.272Z,0.90
2024-02-09T11:47:34.451Z,1.15
2024-02-09T11:50:02.328Z,2.47
2024-02-09T11:52:29.520Z,0.90
2024-02-09T11:55:01.155Z,0.88
2024-02-09T11:57:30.392Z,1.08
2024-02-09T11:59:59.544Z,1.10
2024-02-09T12:02:33.848Z,1.48
2024-02-09T12:05:03.242Z,0.88
2024-02-09T12:07:31.717Z,1.15
2024-02-09T12:10:02.733Z,1.10
2024-02-09T12:12:31.529Z,1.13
2024-02-09T12:14:59.223Z,1.38
2024-02-09T12:17:26.453Z,1.13
2024-02-09T12:19:57.045Z,1.10
2024-02-09T12:22:25.612Z,0.90
2024-02-09T12:24:53.827Z,0.80
2024-02-09T12:27:22.111Z,1.85
2024-02-09T12:29:51.536Z,1.25
2024-02-09T12:32:21.510Z,0.90
2024-02-09T12:34:54.862Z,1.73
2024-02-09T12:37:26.049Z,0.82
2024-02-09T12:39:56.310Z,1.05
2024-02-09T12:42:32.767Z,1.00
2024-02-09T12:45:01.545Z,1.45
2024-02-09T12:47:30.960Z,0.80
2024-02-09T12:50:02.282Z,0.75
2024-02-09T12:52:33.906Z,0.80
2024-02-09T12:55:01.884Z,1.50
2024-02-09T12:57:31.438Z,0.98
2024-02-09T12:59:58.645Z,0.88
2024-02-09T13:02:30.037Z,1.52
2024-02-09T13:04:57.334Z,1.05
2024-02-09T13:07:25.413Z,0.95
2024-02-09T13:09:52.825Z,0.95
2024-02-09T13:12:23.535Z,2.63
2024-02-09T13:14:51.215Z,0.82
2024-02-09T13:17:21.141Z,0.90
2024-02-09T13:19:48.974Z,1.08
2024-02-09T13:22:19.615Z,0.77
2024-02-09T13:24:49.730Z,0.75
2024-02-09T13:27:16.859Z,0.80
2024-02-09T13:29:44.690Z,1.60
2024-02-09T13:32:17.867Z,0.80
2024-02-09T13:34:46.824Z,0.85
2024-02-09T13:37:14.347Z,1.23
2024-02-09T13:39:43.036Z,1.50
2024-02-09T13:42:11.171Z,2.25
2024-02-09T13:44:39.473Z,1.08
2024-02-09T13:47:10.369Z,1.10
2024-02-09T13:49:41.983Z,1.35
2024-02-09T13:52:10.242Z,1.50
2024-02-09T13:54:38.153Z,0.70
2024-02-09T13:57:06.383Z,1.02
2024-02-09T13:59:33.802Z,1.02
2024-02-09T14:02:02.896Z,0.52
2024-02-09T14:04:30.183Z,2.30
2024-02-09T14:07:00.631Z,1.00
2024-02-09T14:09:29.292Z,0.80
2024-02-09T14:11:58.591Z,0.88
2024-02-09T14:14:27.281Z,1.17
2024-02-09T14:16:56.448Z,1.38
2024-02-09T14:19:25.895Z,0.60
2024-02-09T14:21:53.540Z,1.02
2024-02-09T14:24:23.447Z,0.77
2024-02-09T14:26:51.857Z,0.77
2024-02-09T14:29:19.399Z,0.50
2024-02-09T14:31:47.210Z,0.43
2024-02-09T14:34:21.752Z,0.68
2024-02-09T14:36:49.675Z,0.70
2024-02-09T14:39:18.104Z,2.08
2024-02-09T14:41:45.737Z,1.70
2024-02-09T14:44:16.900Z,1.13
2024-02-09T14:46:47.567Z,0.90
2024-02-09T14:49:15.054Z,0.80
2024-02-09T14:51:45.787Z,0.80
2024-02-09T14:54:14.121Z,1.15
2024-02-09T14:56:51.509Z,0.70
2024-02-09T14:59:48.149Z,0.90
2024-02-09T15:02:19.427Z,0.75
2024-02-09T15:04:52.940Z,0.80
2024-02-09T15:07:24.750Z,1.17
2024-02-09T15:12:22.488Z,1.00
2024-02-09T15:14:50.148Z,0.82
2024-02-09T15:17:23.030Z,2.03
2024-02-09T15:19:54.160Z,2.20
2024-02-09T15:24:50.153Z,0.57
2024-02-09T15:27:21.516Z,1.60
2024-02-09T15:29:50.733Z,1.55
2024-02-09T15:32:19.409Z,1.20
2024-02-09T15:34:46.849Z,0.47
2024-02-09T15:37:16.861Z,0.68
2024-02-09T15:39:48.058Z,0.77
2024-02-09T15:42:16.487Z,0.65
2024-02-09T15:44:44.709Z,1.13
2024-02-09T15:47:12.079Z,0.60
2024-02-09T15:49:42.435Z,0.80
2024-02-09T15:52:12.736Z,1.20
2024-02-09T15:54:47.127Z,0.80
2024-02-09T15:57:16.339Z,1.23
2024-02-09T15:59:49.770Z,0.80
2024-02-09T16:02:17.550Z,1.33
2024-02-09T16:04:49.616Z,1.25
2024-02-09T16:07:22.766Z,0.80
2024-02-09T16:09:53.924Z,1.05
2024-02-09T16:12:23.281Z,1.08
2024-02-09T16:14:52.658Z,0.77
2024-02-09T16:17:24.261Z,0.70
2024-02-09T16:19:53.744Z,0.60
2024-02-09T16:22:21.250Z,0.80
2024-02-09T16:24:48.865Z,0.60
2024-02-09T16:27:16.237Z,0.85
2024-02-09T16:29:46.890Z,0.70
2024-02-09T16:32:15.544Z,0.60
2024-02-09T16:34:43.092Z,0.75
2024-02-09T16:37:11.708Z,0.82
2024-02-09T16:39:43.442Z,1.17
2024-02-09T16:42:12.338Z,2.75
2024-02-09T16:44:39.796Z,0.63
2024-02-09T16:47:08.578Z,0.70
2024-02-09T16:49:36.818Z,0.50
2024-02-09T16:52:05.710Z,0.70
2024-02-09T16:54:34.097Z,0.63
2024-02-09T16:57:04.876Z,1.20
2024-02-09T16:59:36.848Z,2.65
2024-02-09T17:02:05.034Z,1.42
2024-02-09T17:04:32.250Z,1.67
2024-02-09T17:06:59.878Z,0.90
2024-02-09T17:09:30.415Z,1.48
2024-02-09T17:11:57.980Z,1.20
2024-02-09T17:14:25.260Z,1.27
2024-02-09T17:16:59.573Z,0.90
2024-02-09T17:19:31.053Z,0.88
2024-02-09T17:21:59.981Z,2.08
2024-02-09T17:24:28.042Z,0.98
2024-02-09T17:26:59.548Z,1.08
2024-02-09T17:29:28.949Z,0.95
2024-02-09T17:31:56.258Z,1.13
2024-02-09T17:34:28.585Z,1.15
2024-02-09T17:36:57.383Z,0.93
2024-02-09T17:39:27.688Z,1.45
2024-02-09T17:41:57.857Z,1.90
2024-02-09T17:44:25.842Z,1.90
2024-02-09T17:46:54.108Z,2.33
2024-02-09T17:49:26.988Z,1.33
2024-02-09T17:51:56.710Z,2.05
2024-02-09T17:54:25.160Z,1.40
2024-02-09T17:56:54.586Z,1.10
2024-02-09T17:59:25.282Z,1.27
2024-02-09T18:01:52.662Z,1.20
2024-02-09T18:04:20.299Z,1.20
2024-02-09T18:06:50.115Z,1.80
2024-02-09T18:09:17.696Z,1.83
2024-02-09T18:11:46.741Z,2.45
2024-02-09T18:14:14.375Z,1.50
2024-02-09T18:16:41.424Z,1.25
2024-02-09T18:19:09.836Z,1.33
2024-02-09T18:21:39.388Z,1.42
2024-02-09T18:24:08.779Z,2.15
2024-02-09T18:26:37.034Z,2.33
2024-02-09T18:29:07.304Z,3.20
2024-02-09T18:31:35.066Z,1.27
2024-02-09T18:34:02.337Z,1.05
2024-02-09T18:36:30.863Z,1.50
2024-02-09T18:39:00.212Z,1.13
2024-02-09T18:41:28.431Z,1.50
2024-02-09T18:43:56.653Z,1.27
2024-02-09T18:46:26.616Z,0.95
2024-02-09T18:48:56.352Z,1.58
2024-02-09T18:51:24.173Z,2.63
2024-02-09T18:53:52.626Z,2.70
2024-02-09T18:56:20.158Z,1.40
2024-02-09T18:58:50.390Z,1.75
2024-02-09T19:01:19.948Z,1.33
2024-02-09T19:03:47.422Z,1.25
2024-02-09T19:06:17.373Z,1.23
2024-02-09T19:08:44.774Z,1.83
2024-02-09T19:11:17.606Z,1.30
2024-02-09T19:13:46.797Z,1.70
2024-02-09T19:16:17.544Z,1.10
2024-02-09T19:18:44.986Z,1.20
2024-02-09T19:21:13.998Z,1.33
2024-02-09T19:23:42.638Z,1.00
2024-02-09T19:26:10.702Z,2.30
2024-02-09T19:28:38.231Z,1.63
2024-02-09T19:31:05.958Z,2.47
2024-02-09T19:33:33.424Z,1.40
2024-02-09T19:36:04.077Z,1.90
2024-02-09T19:38:31.754Z,2.38
2024-02-09T19:41:00.197Z,1.50
2024-02-09T19:43:27.526Z,1.70
2024-02-09T19:45:55.278Z,1.13
2024-02-09T19:48:22.602Z,1.40
2024-02-09T19:50:53.140Z,1.85
2024-02-09T19:53:23.952Z,1.80
2024-02-09T19:55:52.708Z,1.10
2024-02-09T19:58:21.064Z,1.75
2024-02-09T20:00:55.806Z,2.50
2024-02-09T20:03:43.588Z,1.23
2024-02-09T20:06:16.264Z,2.20
2024-02-09T20:08:47.236Z,1.55
2024-02-09T20:11:14.474Z,1.67
2024-02-09T20:13:44.946Z,1.73
2024-02-09T20:16:14.155Z,2.03
2024-02-09T20:18:45.235Z,1.80
2024-02-09T20:21:13.259Z,1.88
2024-02-09T20:23:43.928Z,1.20
2024-02-09T20:26:12.264Z,1.63
2024-02-09T20:28:40.210Z,1.10
2024-02-09T20:31:10.354Z,1.52
2024-02-09T20:33:38.150Z,1.38
2024-02-09T20:36:07.488Z,1.27
2024-02-09T20:38:34.844Z,1.40
2024-02-09T20:41:03.448Z,1.83
2024-02-09T20:43:32.460Z,1.38
2024-02-09T20:46:01.815Z,1.42
2024-02-09T20:48:28.972Z,1.08
2024-02-09T20:50:56.444Z,1.20
2024-02-09T20:53:28.343Z,1.30
2024-02-09T20:58:28.989Z,1.95
2024-02-09T21:00:57.377Z,1.30
2024-02-09T21:03:30.891Z,1.30
2024-02-09T21:05:59.958Z,1.38
2024-02-09T21:08:28.193Z,1.20
2024-02-09T21:10:55.942Z,2.25
2024-02-09T21:13:23.595Z,1.38
2024-02-09T21:15:54.904Z,1.60
2024-02-09T21:18:23.922Z,1.13
2024-02-09T21:20:55.679Z,3.17
